Latest Weather Observations for Sydney Olympic Park

IDN60801

Issued at 10:35 am EST Saturday 26 July 2014 (issued every 30 minutes, with the page automatically refreshed every 10 minutes)

About weather observations | Map of weather stations | Latest weather observations for NSW | Other Formats
Station Details ID: 066212 Name: SYDNEY OLYMPIC PARK AWS (ARCHERY CENTRE) Lat: -33.83 Lon: 151.07 Height: 4.0 m
Data from the previous 72 hours. | See also: Recent months at Sydney Olympic Park
Date/Time
EST
Temp
°C
App
Temp
°C
Dew
Point
Rel
Hum
%
Delta-T
°C
Wind Press
QNH
hPa
Press
MSL
hPa
Rain
since 9 am
mm
Dir
 
Spd
km/h
Gust
km/h
Spd
kts
Gust
kts
26/10:30am 12.6 12.2 12.3 98 0.2 N 6 13 3 7 - - 3.0
26/10:08am 12.5 11.5 12.2 98 0.2 N 9 13 5 7 - - 3.0
26/10:00am 12.5 11.9 12.2 98 0.2 NNE 7 11 4 6 - - 2.8
26/09:30am 12.6 12.0 12.3 98 0.2 NE 7 11 4 6 - - 1.8
26/09:00am 12.4 11.3 12.1 98 0.2 NNW 9 11 5 6 - - 8.6
26/08:30am 12.4 13.1 12.1 98 0.2 CALM 0 4 0 2 - - 7.0
26/08:08am 12.5 12.8 12.2 98 0.2 SW 2 9 1 5 - - 6.8
26/08:00am 12.5 12.0 12.2 98 0.2 SW 6 9 3 5 - - 6.8
26/07:46am 12.6 12.2 12.3 98 0.2 SW 6 9 3 5 - - 6.8
26/07:30am 12.6 12.0 12.3 98 0.2 S 7 11 4 6 - - 6.8
26/07:00am 12.6 13.3 12.3 98 0.2 CALM 0 2 0 1 - - 4.8
26/06:30am 12.5 11.9 12.2 98 0.2 NW 7 11 4 6 - - 3.6
26/06:00am 12.5 13.2 12.2 98 0.2 WNW 0 0 0 0 - - 3.2
26/05:30am 12.8 11.9 12.5 98 0.2 N 9 17 5 9 - - 3.0
26/05:23am 12.9 11.6 12.6 98 0.2 NNW 11 20 6 11 - - 2.8
26/05:00am 12.5 11.5 12.2 98 0.2 NW 9 13 5 7 - - 2.0
26/04:53am 12.4 11.3 11.9 97 0.3 NNW 9 11 5 6 - - 1.8
26/04:30am 12.6 12.1 12.1 97 0.3 WSW 6 9 3 5 - - 1.4
26/04:00am 12.2 12.7 11.7 97 0.3 CALM 0 0 0 0 - - 1.4
26/03:30am 12.4 12.6 11.9 97 0.3 WSW 2 7 1 4 - - 1.4
26/03:00am 12.1 12.6 11.6 97 0.3 CALM 0 7 0 4 - - 1.4
26/02:30am 11.4 11.7 10.8 96 0.3 CALM 0 0 0 0 - - 1.4
26/02:00am 12.1 11.4 11.5 96 0.3 N 6 7 3 4 - - 1.4
26/01:30am 12.4 12.9 11.5 94 0.5 CALM 0 0 0 0 - - 1.4
26/01:00am 12.9 13.0 11.6 92 0.7 WSW 2 6 1 3 - - 1.4
26/12:30am 13.1 13.6 11.7 91 0.7 CALM 0 0 0 0 - - 1.4
26/12:00am 13.6 13.8 11.7 88 1.0 E 2 7 1 4 - - 1.4
 
Date/Time
EST
Temp
°C
App
Temp
°C
Dew
Point
Rel
Hum
%
Delta-T
°C
Wind Press
QNH
hPa
Press
MSL
hPa
Rain
since 9 am
mm
Dir
 
Spd
km/h
Gust
km/h
Spd
kts
Gust
kts
25/11:30pm 13.6 13.6 11.1 85 1.3 NE 2 7 1 4 - - 1.4
25/11:00pm 14.9 15.3 11.1 78 2.0 CALM 0 0 0 0 - - 1.4
25/10:30pm 15.8 15.0 11.6 76 2.3 N 7 11 4 6 - - 1.4
25/10:00pm 15.9 15.1 11.7 76 2.3 NE 7 11 4 6 - - 1.4
25/09:30pm 15.8 15.8 11.2 74 2.5 SE 2 7 1 4 - - 1.4
25/09:00pm 16.9 15.6 11.2 69 3.1 N 9 15 5 8 - - 1.4
25/08:30pm 17.1 15.4 11.2 68 3.2 N 11 15 6 8 - - 1.4
25/08:00pm 17.9 15.4 11.2 65 3.6 N 15 22 8 12 - - 1.4
25/07:30pm 18.0 15.1 11.1 64 3.7 NNW 17 30 9 16 - - 1.4
25/07:00pm 18.3 15.4 10.9 62 4.0 NNW 17 30 9 16 - - 1.4
25/06:30pm 18.5 15.2 10.8 61 4.2 NNW 19 30 10 16 - - 1.4
25/06:00pm 18.2 16.0 10.8 62 4.0 NNW 13 20 7 11 - - 1.4
25/05:30pm 18.5 15.6 11.1 62 4.0 NNW 17 28 9 15 - - 1.4
25/05:00pm 18.9 15.1 11.2 61 4.2 N 22 32 12 17 - - 1.4
25/04:30pm 19.1 14.9 11.2 60 4.3 NNW 24 39 13 21 - - 1.4
25/04:00pm 19.1 16.5 11.9 63 4.0 NNW 17 28 9 15 - - 1.4
25/03:30pm 19.6 17.1 12.4 63 4.0 N 17 28 9 15 - - 1.4
25/03:00pm 19.7 17.2 12.2 62 4.2 N 17 26 9 14 - - 1.4
25/02:30pm 20.5 17.4 12.2 59 4.6 NNW 20 33 11 18 - - 1.4
25/02:00pm 18.7 15.8 12.2 66 3.6 NNW 19 35 10 19 - - 1.4
25/01:30pm 18.8 16.5 13.0 69 3.3 NNW 17 26 9 14 - - 1.4
25/01:00pm 18.3 16.3 12.7 70 3.1 NNW 15 26 8 14 - - 1.4
25/12:30pm 17.1 15.6 13.0 77 2.3 NNW 13 20 7 11 - - 1.4
25/12:00pm 15.4 14.5 13.6 89 1.0 NW 11 17 6 9 - - 1.4
25/11:30am 14.1 13.5 13.5 96 0.3 NNW 9 13 5 7 - - 1.4
25/11:00am 13.6 13.3 13.3 98 0.2 N 7 24 4 13 - - 1.2
25/10:48am 11.6 12.0 11.3 98 0.2 CALM 0 0 0 0 - - 1.2
25/10:30am 11.4 11.4 11.1 98 0.2 N 2 6 1 3 - - 1.0
25/10:15am 11.2 11.1 10.9 98 0.2 W 2 6 1 3 - - 0.6
25/10:00am 10.7 9.5 10.4 98 0.2 W 7 13 4 7 - - 0.6
25/09:30am 10.2 9.8 9.9 98 0.2 E 2 6 1 3 - - 0.4
25/09:00am 9.8 9.3 9.5 98 0.1 WNW 2 7 1 4 - - 0.0
25/08:30am 9.2 7.8 8.9 98 0.1 WSW 6 11 3 6 - - 0.0
25/08:00am 8.9 7.4 8.6 98 0.1 N 6 9 3 5 - - 0.0
25/07:30am 8.0 6.3 7.7 98 0.1 WSW 6 7 3 4 - - 0.0
25/07:25am 7.9 6.2 7.6 98 0.1 W 6 9 3 5 - - 0.0
25/07:03am 7.2 5.7 6.9 98 0.1 NW 4 7 2 4 - - 0.0
25/07:00am 7.2 5.3 6.9 98 0.1 NW 6 7 3 4 - - 0.0
25/06:55am 7.0 5.5 6.7 98 0.1 NW 4 7 2 4 - - 0.0
25/06:30am 6.3 5.4 6.0 98 0.1 CALM 0 0 0 0 - - 0.0
25/06:18am 6.0 5.0 5.7 98 0.1 CALM 0 0 0 0 - - 0.0
25/06:02am 5.8 4.8 5.5 98 0.1 CALM 0 0 0 0 - - 0.0
25/06:00am 5.8 4.8 5.5 98 0.1 CALM 0 0 0 0 - - 0.0
25/05:49am 5.9 4.9 5.6 98 0.1 CALM 0 0 0 0 - - 0.0
25/05:30am 6.2 5.3 5.9 98 0.1 CALM 0 0 0 0 - - 0.0
25/05:00am 6.4 5.5 6.1 98 0.1 CALM 0 0 0 0 - - 0.0
25/04:55am 6.3 5.4 6.0 98 0.1 CALM 0 0 0 0 - - 0.0
25/04:42am 6.4 5.5 6.1 98 0.1 CALM 0 0 0 0 - - 0.0
25/04:30am 6.3 5.4 6.0 98 0.1 CALM 0 0 0 0 - - 0.0
25/04:00am 6.7 5.9 6.4 98 0.1 CALM 0 0 0 0 - - 0.0
25/03:30am 7.0 6.2 6.7 98 0.1 CALM 0 0 0 0 - - 0.0
25/03:00am 7.4 6.7 7.1 98 0.1 CALM 0 0 0 0 - - 0.0
25/02:30am 7.7 7.1 7.4 98 0.1 CALM 0 0 0 0 - - 0.0
25/02:00am 8.0 7.4 7.6 97 0.2 CALM 0 0 0 0 - - 0.0
25/01:30am 8.6 8.2 8.3 98 0.1 CALM 0 0 0 0 - - 0.0
25/01:00am 8.8 8.5 8.5 98 0.1 CALM 0 0 0 0 - - 0.0
25/12:30am 9.0 8.7 8.7 98 0.1 CALM 0 0 0 0 - - 0.0
25/12:00am 9.1 8.8 8.8 98 0.1 CALM 0 0 0 0 - - 0.0
 
Date/Time
EST
Temp
°C
App
Temp
°C
Dew
Point
Rel
Hum
%
Delta-T
°C
Wind Press
QNH
hPa
Press
MSL
hPa
Rain
since 9 am
mm
Dir
 
Spd
km/h
Gust
km/h
Spd
kts
Gust
kts
24/11:30pm 9.0 8.7 8.5 97 0.2 CALM 0 0 0 0 - - 0.0
24/11:00pm 9.3 9.0 8.8 97 0.2 CALM 0 0 0 0 - - 0.0
24/10:30pm 10.0 9.9 9.5 97 0.2 CALM 0 0 0 0 - - 0.0
24/10:00pm 10.5 10.5 9.9 96 0.3 CALM 0 0 0 0 - - 0.0
24/09:30pm 11.1 11.1 9.9 92 0.6 CALM 0 0 0 0 - - 0.0
24/09:00pm 11.3 11.5 10.4 94 0.5 CALM 0 0 0 0 - - 0.0
24/08:30pm 11.7 11.8 10.3 91 0.7 CALM 0 0 0 0 - - 0.0
24/08:00pm 12.1 12.1 9.8 86 1.2 CALM 0 0 0 0 - - 0.0
24/07:30pm 13.6 12.3 10.0 79 1.9 N 7 11 4 6 - - 0.0
24/07:00pm 13.9 12.6 10.1 78 2.0 N 7 11 4 6 - - 0.0
24/06:30pm 14.0 14.1 10.0 77 2.1 CALM 0 0 0 0 - - 0.0
24/06:00pm 14.3 14.3 9.9 75 2.3 CALM 0 0 0 0 - - 0.0
24/05:30pm 15.0 14.5 9.4 69 2.9 NW 2 7 1 4 - - 0.0
24/05:00pm 16.4 15.0 8.9 61 3.9 NNE 6 11 3 6 - - 0.0
24/04:30pm 16.7 14.8 9.1 61 3.9 N 9 15 5 8 - - 0.0
24/04:00pm 17.3 15.1 9.2 59 4.2 N 11 17 6 9 - - 0.0
24/03:30pm 17.5 15.6 9.2 58 4.3 N 9 15 5 8 - - 0.0
24/03:00pm 18.3 15.6 9.1 55 4.8 NNW 13 20 7 11 - - 0.0
24/02:30pm 18.8 17.6 10.4 58 4.5 NE 7 13 4 7 - - 0.0
24/02:00pm 16.7 15.8 10.8 68 3.2 E 6 9 3 5 - - 0.0
24/01:30pm 16.3 15.4 10.6 69 3.0 NNW 6 9 3 5 - - 0.0
24/01:00pm 15.7 14.7 11.1 74 2.5 WNW 7 11 4 6 - - 0.0
24/12:30pm 15.0 14.1 10.8 76 2.2 WNW 6 11 3 6 - - 0.0
24/12:00pm 14.4 13.3 10.6 78 2.0 WNW 7 9 4 5 - - 0.0
24/11:30am 14.9 13.4 10.5 75 2.3 W 9 13 5 7 - - 0.0
24/11:00am 14.8 12.6 10.8 77 2.1 WNW 13 17 7 9 - - 0.0
24/10:30am 13.7 12.1 11.4 86 1.2 WNW 11 15 6 8 - - 0.0
24/10:00am 12.4 11.1 11.3 93 0.6 WNW 9 13 5 7 - - 0.0
24/09:31am 11.9 11.6 11.3 96 0.3 W 4 9 2 5 - - 0.0
24/09:30am 11.9 11.6 11.3 96 0.3 W 4 9 2 5 - - 0.0
24/09:00am 11.5 10.7 11.0 97 0.3 NW 6 9 3 5 - - 0.0
24/08:40am 11.0 10.9 10.7 98 0.2 WNW 2 7 1 4 - - 0.0
24/08:30am 10.4 10.1 10.1 98 0.2 WNW 2 6 1 3 - - 0.0
24/08:00am 8.8 8.1 8.5 98 0.1 NW 2 7 1 4 - - 0.0
24/07:30am 6.5 5.6 6.2 98 0.1 CALM 0 0 0 0 - - 0.0
24/07:00am 5.6 4.5 5.3 98 0.1 CALM 0 0 0 0 - - 0.0
24/06:30am 5.4 4.3 5.1 98 0.1 CALM 0 0 0 0 - - 0.0
24/06:00am 5.3 4.2 5.0 98 0.1 CALM 0 0 0 0 - - 0.0
24/05:30am 5.6 4.5 5.3 98 0.1 CALM 0 0 0 0 - - 0.0
24/05:00am 5.5 4.4 5.2 98 0.1 CALM 0 0 0 0 - - 0.0
24/04:30am 5.6 4.5 5.3 98 0.1 CALM 0 0 0 0 - - 0.0
24/04:00am 5.9 4.9 5.6 98 0.1 CALM 0 0 0 0 - - 0.0
24/03:30am 5.7 4.7 5.4 98 0.1 CALM 0 0 0 0 - - 0.0
24/03:15am 6.0 5.0 5.7 98 0.1 CALM 0 0 0 0 - - 0.0
24/03:14am 6.0 5.0 5.7 98 0.1 CALM 0 0 0 0 - - 0.0
24/03:00am 6.2 5.3 5.9 98 0.1 CALM 0 0 0 0 - - 0.0
24/02:30am 6.4 5.5 6.1 98 0.1 CALM 0 0 0 0 - - 0.0
24/02:00am 6.8 6.0 6.5 98 0.1 CALM 0 0 0 0 - - 0.0
24/01:46am 7.0 6.2 6.7 98 0.1 CALM 0 0 0 0 - - 0.0
24/01:35am 7.1 6.4 6.8 98 0.1 CALM 0 0 0 0 - - 0.0
24/01:30am 7.4 6.7 7.1 98 0.1 CALM 0 0 0 0 - - 0.0
24/01:21am 7.3 6.6 7.0 98 0.1 CALM 0 0 0 0 - - 0.0
24/01:17am 7.4 6.7 7.1 98 0.1 CALM 0 0 0 0 - - 0.0
24/01:00am 7.4 6.7 7.1 98 0.1 CALM 0 0 0 0 - - 0.0
24/12:57am 7.4 6.7 7.1 98 0.1 CALM 0 0 0 0 - - 0.0
24/12:30am 7.8 7.2 7.5 98 0.1 CALM 0 0 0 0 - - 0.0
24/12:00am 7.5 6.9 7.2 98 0.1 CALM 0 0 0 0 - - 0.0
 
Date/Time
EST
Temp
°C
App
Temp
°C
Dew
Point
Rel
Hum
%
Delta-T
°C
Wind Press
QNH
hPa
Press
MSL
hPa
Rain
since 9 am
mm
Dir
 
Spd
km/h
Gust
km/h
Spd
kts
Gust
kts
23/11:30pm 7.8 7.2 7.5 98 0.1 CALM 0 0 0 0 - - 0.0
23/11:00pm 8.0 7.5 7.7 98 0.1 CALM 0 4 0 2 - - 0.0
23/10:30pm 8.3 7.8 8.0 98 0.1 CALM 0 0 0 0 - - 0.0
23/10:00pm 8.9 7.4 8.6 98 0.1 W 6 7 3 4 - - 0.0
23/09:30pm 9.0 8.7 8.5 97 0.2 CALM 0 0 0 0 - - 0.0
23/09:00pm 9.4 9.2 8.9 97 0.2 CALM 0 0 0 0 - - 0.0
23/08:30pm 9.9 9.7 9.1 95 0.4 CALM 0 0 0 0 - - 0.0
23/08:00pm 10.5 10.4 9.3 92 0.6 CALM 0 0 0 0 - - 0.0
23/07:30pm 11.7 11.7 9.8 88 1.0 CALM 0 0 0 0 - - 0.0
23/07:00pm 13.5 13.3 10.3 81 1.7 ENE 2 6 1 3 - - 0.0
23/06:30pm 13.9 12.6 10.1 78 2.0 E 7 9 4 5 - - 0.0
23/06:00pm 14.4 13.2 10.2 76 2.2 E 7 9 4 5 - - 0.0
23/05:30pm 14.8 13.3 10.4 75 2.3 E 9 15 5 8 - - 0.0
23/05:00pm 15.1 13.5 10.3 73 2.5 ENE 9 15 5 8 - - 0.0
23/04:30pm 15.6 14.0 10.2 70 2.8 E 9 17 5 9 - - 0.0
23/04:00pm 16.1 14.1 10.2 68 3.1 E 11 17 6 9 - - 0.0
23/03:30pm 16.7 14.2 9.6 63 3.7 E 13 17 7 9 - - 0.0
23/03:00pm 17.5 15.0 8.4 55 4.7 E 11 17 6 9 - - 0.0
23/02:30pm 17.7 15.6 8.3 54 4.8 NE 9 13 5 7 - - 0.0
23/02:00pm 18.3 16.7 8.6 53 5.0 NE 7 9 4 5 - - 0.0
23/01:30pm 17.7 16.4 9.3 58 4.4 NE 6 9 3 5 - - 0.0
23/01:00pm 18.0 16.5 9.1 56 4.6 NE 7 11 4 6 - - 0.0
23/12:30pm 17.7 16.6 8.3 54 4.8 NW 4 9 2 5 - - 0.0
23/12:00pm 17.6 16.3 10.0 61 4.0 ENE 7 11 4 6 - - 0.0
23/11:30am 16.3 15.2 9.9 66 3.4 SSW 6 11 3 6 - - 0.0
23/11:00am 16.5 15.6 10.6 68 3.1 NW 6 13 3 7 - - 0.0

Other Formats:

Comma delimited format used in spreadsheet applications
http://www.bom.gov.au/fwo/IDN60801/IDN60801.95765.axf

JavaScript Object Notation format (JSON) in row-major order
http://www.bom.gov.au/fwo/IDN60801/IDN60801.95765.json